sensor_id;sensor_type;location;lat;lon;timestamp;pressure;altitude;pressure_sealevel;temperature;humidity
78855;BME280;68206;59.956;30.234;2023-04-01T00:00:41;100348.31;;;-0.15;78.51
78855;BME280;68206;59.956;30.234;2023-04-01T00:03:13;100349.22;;;-0.13;78.12
78855;BME280;68206;59.956;30.234;2023-04-01T00:05:46;100344.81;;;-0.19;78.44
78855;BME280;68206;59.956;30.234;2023-04-01T00:08:19;100341.31;;;-0.22;78.47
78855;BME280;68206;59.956;30.234;2023-04-01T00:10:52;100346.56;;;-0.19;78.63
78855;BME280;68206;59.956;30.234;2023-04-01T00:13:24;100346.56;;;-0.18;78.38
78855;BME280;68206;59.956;30.234;2023-04-01T00:15:57;100339.59;;;-0.20;78.83
78855;BME280;68206;59.956;30.234;2023-04-01T00:18:31;100342.19;;;-0.19;78.64
78855;BME280;68206;59.956;30.234;2023-04-01T00:21:02;100342.19;;;-0.19;78.53
78855;BME280;68206;59.956;30.234;2023-04-01T00:23:33;100345.69;;;-0.20;78.68
78855;BME280;68206;59.956;30.234;2023-04-01T00:26:05;100341.34;;;-0.21;78.49
78855;BME280;68206;59.956;30.234;2023-04-01T00:28:39;100344.78;;;-0.22;78.44
78855;BME280;68206;59.956;30.234;2023-04-01T00:31:12;100347.38;;;-0.23;78.46
78855;BME280;68206;59.956;30.234;2023-04-01T00:33:44;100348.25;;;-0.24;78.82
78855;BME280;68206;59.956;30.234;2023-04-01T00:36:16;100343.00;;;-0.27;78.97
78855;BME280;68206;59.956;30.234;2023-04-01T00:38:48;100348.19;;;-0.30;78.81
78855;BME280;68206;59.956;30.234;2023-04-01T00:41:20;100343.88;;;-0.31;79.25
78855;BME280;68206;59.956;30.234;2023-04-01T00:43:52;100351.69;;;-0.31;79.12
78855;BME280;68206;59.956;30.234;2023-04-01T00:46:25;100347.31;;;-0.31;79.55
78855;BME280;68206;59.956;30.234;2023-04-01T00:48:56;100341.25;;;-0.28;79.21
78855;BME280;68206;59.956;30.234;2023-04-01T00:51:29;100339.50;;;-0.29;79.48
78855;BME280;68206;59.956;30.234;2023-04-01T00:54:01;100342.09;;;-0.31;79.45
78855;BME280;68206;59.956;30.234;2023-04-01T00:56:35;100339.50;;;-0.32;79.15
78855;BME280;68206;59.956;30.234;2023-04-01T00:59:13;100336.03;;;-0.33;79.11
78855;BME280;68206;59.956;30.234;2023-04-01T01:01:47;100338.66;;;-0.31;78.88
78855;BME280;68206;59.956;30.234;2023-04-01T01:04:24;100341.22;;;-0.34;79.44
78855;BME280;68206;59.956;30.234;2023-04-01T01:07:05;100338.63;;;-0.34;79.35
78855;BME280;68206;59.956;30.234;2023-04-01T01:09:45;100329.84;;;-0.43;79.32
78855;BME280;68206;59.956;30.234;2023-04-01T01:12:23;100329.03;;;-0.38;79.40
78855;BME280;68206;59.956;30.234;2023-04-01T01:15:02;100329.88;;;-0.41;79.86
78855;BME280;68206;59.956;30.234;2023-04-01T01:17:48;100332.47;;;-0.43;79.72
78855;BME280;68206;59.956;30.234;2023-04-01T01:20:44;100329.00;;;-0.42;80.03
78855;BME280;68206;59.956;30.234;2023-04-01T01:26:44;100334.19;;;-0.46;79.40
78855;BME280;68206;59.956;30.234;2023-04-01T01:30:04;100330.69;;;-0.44;79.20
78855;BME280;68206;59.956;30.234;2023-04-01T01:35:51;100334.16;;;-0.48;79.35
78855;BME280;68206;59.956;30.234;2023-04-01T01:38:26;100331.53;;;-0.49;79.58
78855;BME280;68206;59.956;30.234;2023-04-01T01:41:04;100339.38;;;-0.46;79.49
78855;BME280;68206;59.956;30.234;2023-04-01T01:43:40;100332.41;;;-0.49;79.51
78855;BME280;68206;59.956;30.234;2023-04-01T01:46:17;100341.09;;;-0.48;79.60
78855;BME280;68206;59.956;30.234;2023-04-01T01:48:50;100337.63;;;-0.50;79.68
78855;BME280;68206;59.956;30.234;2023-04-01T01:51:24;100329.81;;;-0.50;79.67
78855;BME280;68206;59.956;30.234;2023-04-01T01:54:00;100338.47;;;-0.50;79.60
78855;BME280;68206;59.956;30.234;2023-04-01T01:56:33;100338.47;;;-0.53;80.21
78855;BME280;68206;59.956;30.234;2023-04-01T01:59:08;100332.34;;;-0.55;80.00
78855;BME280;68206;59.956;30.234;2023-04-01T02:01:45;100335.88;;;-0.50;79.93
78855;BME280;68206;59.956;30.234;2023-04-01T02:04:18;100338.50;;;-0.48;79.33
78855;BME280;68206;59.956;30.234;2023-04-01T02:06:58;100331.53;;;-0.49;79.63
78855;BME280;68206;59.956;30.234;2023-04-01T02:09:31;100324.63;;;-0.46;79.16
78855;BME280;68206;59.956;30.234;2023-04-01T02:12:07;100332.47;;;-0.44;79.28
78855;BME280;68206;59.956;30.234;2023-04-01T02:14:44;100326.38;;;-0.43;78.83
78855;BME280;68206;59.956;30.234;2023-04-01T02:17:20;100330.69;;;-0.47;79.16
78855;BME280;68206;59.956;30.234;2023-04-01T02:19:54;100334.19;;;-0.45;79.29
78855;BME280;68206;59.956;30.234;2023-04-01T02:22:31;100331.56;;;-0.46;79.25
78855;BME280;68206;59.956;30.234;2023-04-01T02:25:06;100335.03;;;-0.50;80.47
78855;BME280;68206;59.956;30.234;2023-04-01T02:27:39;100328.94;;;-0.51;80.66
78855;BME280;68206;59.956;30.234;2023-04-01T02:30:14;100339.31;;;-0.54;81.24
78855;BME280;68206;59.956;30.234;2023-04-01T02:32:46;100340.19;;;-0.53;80.81
78855;BME280;68206;59.956;30.234;2023-04-01T02:35:18;100338.41;;;-0.56;81.19
78855;BME280;68206;59.956;30.234;2023-04-01T02:37:52;100334.09;;;-0.55;80.76
78855;BME280;68206;59.956;30.234;2023-04-01T02:40:23;100337.56;;;-0.55;80.61
78855;BME280;68206;59.956;30.234;2023-04-01T02:42:52;100334.06;;;-0.58;80.71
78855;BME280;68206;59.956;30.234;2023-04-01T02:45:20;100338.41;;;-0.59;80.22
78855;BME280;68206;59.956;30.234;2023-04-01T02:47:48;100345.34;;;-0.56;81.24
78855;BME280;68206;59.956;30.234;2023-04-01T02:50:16;100337.56;;;-0.58;80.26
78855;BME280;68206;59.956;30.234;2023-04-01T02:52:44;100340.13;;;-0.56;80.13
78855;BME280;68206;59.956;30.234;2023-04-01T02:55:14;100339.25;;;-0.63;80.37
78855;BME280;68206;59.956;30.234;2023-04-01T02:57:42;100337.59;;;-0.52;79.64
78855;BME280;68206;59.956;30.234;2023-04-01T03:00:11;100341.00;;;-0.56;79.41
78855;BME280;68206;59.956;30.234;2023-04-01T03:02:40;100334.94;;;-0.58;79.79
78855;BME280;68206;59.956;30.234;2023-04-01T03:05:08;100333.22;;;-0.54;78.62
78855;BME280;68206;59.956;30.234;2023-04-01T03:07:36;100329.69;;;-0.64;79.45
78855;BME280;68206;59.956;30.234;2023-04-01T03:10:06;100335.81;;;-0.56;79.60
78855;BME280;68206;59.956;30.234;2023-04-01T03:12:36;100346.28;;;-0.53;79.85
78855;BME280;68206;59.956;30.234;2023-04-01T03:15:05;100345.41;;;-0.52;79.70
78855;BME280;68206;59.956;30.234;2023-04-01T03:17:38;100347.09;;;-0.55;80.17
78855;BME280;68206;59.956;30.234;2023-04-01T03:20:08;100344.53;;;-0.54;79.23
78855;BME280;68206;59.956;30.234;2023-04-01T03:22:37;100354.06;;;-0.54;79.91
78855;BME280;68206;59.956;30.234;2023-04-01T03:25:09;100346.22;;;-0.59;80.05
78855;BME280;68206;59.956;30.234;2023-04-01T03:27:40;100350.53;;;-0.59;80.00
78855;BME280;68206;59.956;30.234;2023-04-01T03:30:09;100347.91;;;-0.61;80.24
78855;BME280;68206;59.956;30.234;2023-04-01T03:32:46;100353.97;;;-0.62;80.58
78855;BME280;68206;59.956;30.234;2023-04-01T03:35:14;100350.53;;;-0.59;80.51
78855;BME280;68206;59.956;30.234;2023-04-01T03:37:42;100362.72;;;-0.58;80.34
78855;BME280;68206;59.956;30.234;2023-04-01T03:40:11;100359.25;;;-0.56;80.09
78855;BME280;68206;59.956;30.234;2023-04-01T03:42:41;100354.03;;;-0.56;80.27
78855;BME280;68206;59.956;30.234;2023-04-01T03:45:10;100351.44;;;-0.57;80.22
78855;BME280;68206;59.956;30.234;2023-04-01T03:47:39;100360.13;;;-0.58;80.76
78855;BME280;68206;59.956;30.234;2023-04-01T03:50:08;100357.53;;;-0.57;80.64
78855;BME280;68206;59.956;30.234;2023-04-01T03:52:37;100368.78;;;-0.56;81.57
78855;BME280;68206;59.956;30.234;2023-04-01T03:55:06;100361.91;;;-0.53;80.97
78855;BME280;68206;59.956;30.234;2023-04-01T03:57:35;100361.03;;;-0.53;80.54
78855;BME280;68206;59.956;30.234;2023-04-01T04:00:15;100367.97;;;-0.52;80.47
78855;BME280;68206;59.956;30.234;2023-04-01T04:02:46;100367.06;;;-0.56;81.18
78855;BME280;68206;59.956;30.234;2023-04-01T04:05:20;100362.72;;;-0.55;80.61
78855;BME280;68206;59.956;30.234;2023-04-01T04:07:48;100374.03;;;-0.53;80.41
78855;BME280;68206;59.956;30.234;2023-04-01T04:10:16;100375.75;;;-0.57;80.39
78855;BME280;68206;59.956;30.234;2023-04-01T04:12:44;100369.66;;;-0.56;80.13
78855;BME280;68206;59.956;30.234;2023-04-01T04:15:12;100368.78;;;-0.56;80.17
78855;BME280;68206;59.956;30.234;2023-04-01T04:17:43;100364.47;;;-0.56;80.30
78855;BME280;68206;59.956;30.234;2023-04-01T04:20:13;100365.34;;;-0.57;80.51
78855;BME280;68206;59.956;30.234;2023-04-01T04:22:42;100364.44;;;-0.59;80.38
78855;BME280;68206;59.956;30.234;2023-04-01T04:25:10;100369.69;;;-0.54;80.43
78855;BME280;68206;59.956;30.234;2023-04-01T04:27:38;100363.66;;;-0.52;80.26
78855;BME280;68206;59.956;30.234;2023-04-01T04:30:10;100374.06;;;-0.52;79.96
78855;BME280;68206;59.956;30.234;2023-04-01T04:32:39;100366.22;;;-0.53;80.26
78855;BME280;68206;59.956;30.234;2023-04-01T04:35:12;100365.41;;;-0.51;80.43
78855;BME280;68206;59.956;30.234;2023-04-01T04:37:40;100368.88;;;-0.49;80.51
78855;BME280;68206;59.956;30.234;2023-04-01T04:40:09;100365.38;;;-0.49;80.26
78855;BME280;68206;59.956;30.234;2023-04-01T04:42:38;100368.94;;;-0.43;79.93
78855;BME280;68206;59.956;30.234;2023-04-01T04:45:10;100375.88;;;-0.42;79.81
78855;BME280;68206;59.956;30.234;2023-04-01T04:47:45;100380.25;;;-0.41;79.94
78855;BME280;68206;59.956;30.234;2023-04-01T04:50:15;100375.03;;;-0.41;80.53
78855;BME280;68206;59.956;30.234;2023-04-01T04:52:43;100367.28;;;-0.34;79.59
78855;BME280;68206;59.956;30.234;2023-04-01T04:55:13;100367.28;;;-0.34;79.89
78855;BME280;68206;59.956;30.234;2023-04-01T04:57:44;100378.56;;;-0.34;79.78
78855;BME280;68206;59.956;30.234;2023-04-01T05:00:13;100379.44;;;-0.30;79.09
78855;BME280;68206;59.956;30.234;2023-04-01T05:02:48;100376.84;;;-0.30;79.29
78855;BME280;68206;59.956;30.234;2023-04-01T05:05:18;100372.53;;;-0.28;78.89
78855;BME280;68206;59.956;30.234;2023-04-01T05:07:47;100377.78;;;-0.25;79.47
78855;BME280;68206;59.956;30.234;2023-04-01T05:10:15;100378.66;;;-0.23;79.02
78855;BME280;68206;59.956;30.234;2023-04-01T05:12:43;100387.38;;;-0.21;78.80
78855;BME280;68206;59.956;30.234;2023-04-01T05:15:16;100386.50;;;-0.19;78.23
78855;BME280;68206;59.956;30.234;2023-04-01T05:17:44;100383.06;;;-0.15;78.51
78855;BME280;68206;59.956;30.234;2023-04-01T05:20:14;100384.84;;;-0.09;78.16
78855;BME280;68206;59.956;30.234;2023-04-01T05:22:44;100383.09;;;-0.10;78.56
78855;BME280;68206;59.956;30.234;2023-04-01T05:25:12;100384.03;;;-0.02;77.76
78855;BME280;68206;59.956;30.234;2023-04-01T05:27:41;100377.97;;;0.02;77.42
78855;BME280;68206;59.956;30.234;2023-04-01T05:30:10;100395.41;;;0.06;77.11
78855;BME280;68206;59.956;30.234;2023-04-01T05:32:59;100391.03;;;0.07;77.13
78855;BME280;68206;59.956;30.234;2023-04-01T05:35:27;100388.41;;;0.02;77.43
78855;BME280;68206;59.956;30.234;2023-04-01T05:37:57;100392.84;;;0.12;76.84
78855;BME280;68206;59.956;30.234;2023-04-01T05:40:25;100386.72;;;0.06;77.23
78855;BME280;68206;59.956;30.234;2023-04-01T05:42:53;100395.47;;;0.15;77.05
78855;BME280;68206;59.956;30.234;2023-04-01T05:45:22;100393.75;;;0.17;76.92
78855;BME280;68206;59.956;30.234;2023-04-01T05:48:08;100395.53;;;0.23;76.10
78855;BME280;68206;59.956;30.234;2023-04-01T05:50:40;100386.84;;;0.22;75.98
78855;BME280;68206;59.956;30.234;2023-04-01T05:53:11;100394.66;;;0.25;76.17
78855;BME280;68206;59.956;30.234;2023-04-01T05:55:42;100393.81;;;0.26;76.19
78855;BME280;68206;59.956;30.234;2023-04-01T05:58:10;100399.88;;;0.27;75.76
78855;BME280;68206;59.956;30.234;2023-04-01T06:00:41;100399.00;;;0.23;76.08
78855;BME280;68206;59.956;30.234;2023-04-01T06:03:09;100403.38;;;0.24;76.10
78855;BME280;68206;59.956;30.234;2023-04-01T06:05:40;100408.59;;;0.24;76.54
78855;BME280;68206;59.956;30.234;2023-04-01T06:08:14;100402.47;;;0.25;76.60
78855;BME280;68206;59.956;30.234;2023-04-01T06:10:56;100405.97;;;0.27;76.93
78855;BME280;68206;59.956;30.234;2023-04-01T06:13:50;100403.44;;;0.35;76.27
78855;BME280;68206;59.956;30.234;2023-04-01T06:16:27;100401.69;;;0.38;76.60
78855;BME280;68206;59.956;30.234;2023-04-01T06:19:09;100403.50;;;0.43;76.76
78855;BME280;68206;59.956;30.234;2023-04-01T06:24:57;100409.59;;;0.48;76.26
78855;BME280;68206;59.956;30.234;2023-04-01T06:27:42;100411.34;;;0.52;75.96
78855;BME280;68206;59.956;30.234;2023-04-01T06:30:37;100398.34;;;0.56;75.62
78855;BME280;68206;59.956;30.234;2023-04-01T06:33:30;100404.44;;;0.60;75.45
78855;BME280;68206;59.956;30.234;2023-04-01T06:36:15;100419.22;;;0.58;75.33
78855;BME280;68206;59.956;30.234;2023-04-01T06:38:57;100406.19;;;0.64;75.59
78855;BME280;68206;59.956;30.234;2023-04-01T06:44:35;100414.91;;;0.64;74.56
78855;BME280;68206;59.956;30.234;2023-04-01T06:47:36;100416.63;;;0.64;74.76
78855;BME280;68206;59.956;30.234;2023-04-01T06:50:34;100413.16;;;0.62;75.11
78855;BME280;68206;59.956;30.234;2023-04-01T06:53:28;100416.63;;;0.64;75.10
78855;BME280;68206;59.956;30.234;2023-04-01T06:56:29;100419.22;;;0.59;75.20
78855;BME280;68206;59.956;30.234;2023-04-01T06:59:08;100421.00;;;0.62;75.47
78855;BME280;68206;59.956;30.234;2023-04-01T07:01:41;100427.06;;;0.64;75.68
78855;BME280;68206;59.956;30.234;2023-04-01T07:04:14;100414.91;;;0.61;75.43
78855;BME280;68206;59.956;30.234;2023-04-01T07:06:47;100420.13;;;0.64;75.35
78855;BME280;68206;59.956;30.234;2023-04-01T07:09:19;100425.31;;;0.63;74.92
78855;BME280;68206;59.956;30.234;2023-04-01T07:12:13;100423.59;;;0.65;75.04
78855;BME280;68206;59.956;30.234;2023-04-01T07:15:22;100430.59;;;0.66;75.10
78855;BME280;68206;59.956;30.234;2023-04-01T07:17:56;100427.97;;;0.66;74.57
78855;BME280;68206;59.956;30.234;2023-04-01T07:20:28;100441.03;;;0.69;74.62
78855;BME280;68206;59.956;30.234;2023-04-01T07:22:59;100435.81;;;0.66;74.97
78855;BME280;68206;59.956;30.234;2023-04-01T07:25:36;100434.09;;;0.71;75.00
78855;BME280;68206;59.956;30.234;2023-04-01T07:28:34;100441.09;;;0.75;75.09
78855;BME280;68206;59.956;30.234;2023-04-01T07:31:26;100441.06;;;0.76;75.23
78855;BME280;68206;59.956;30.234;2023-04-01T07:34:03;100445.44;;;0.77;75.12
78855;BME280;68206;59.956;30.234;2023-04-01T07:36:39;100448.03;;;0.73;74.85
78855;BME280;68206;59.956;30.234;2023-04-01T07:39:22;100450.63;;;0.68;75.44
78855;BME280;68206;59.956;30.234;2023-04-01T07:42:08;100442.72;;;0.61;75.51
78855;BME280;68206;59.956;30.234;2023-04-01T07:44:47;100453.13;;;0.55;76.18
78855;BME280;68206;59.956;30.234;2023-04-01T07:47:41;100455.72;;;0.52;76.42
78855;BME280;68206;59.956;30.234;2023-04-01T07:50:18;100454.84;;;0.53;76.43
78855;BME280;68206;59.956;30.234;2023-04-01T07:52:58;100458.31;;;0.52;76.19
78855;BME280;68206;59.956;30.234;2023-04-01T07:55:31;100458.31;;;0.49;76.95
78855;BME280;68206;59.956;30.234;2023-04-01T07:58:03;100463.53;;;0.52;77.23
78855;BME280;68206;59.956;30.234;2023-04-01T08:00:48;100460.09;;;0.54;77.13
78855;BME280;68206;59.956;30.234;2023-04-01T08:03:42;100467.03;;;0.57;77.23
78855;BME280;68206;59.956;30.234;2023-04-01T08:06:18;100467.94;;;0.59;76.57
78855;BME280;68206;59.956;30.234;2023-04-01T08:08:59;100470.59;;;0.62;77.05
78855;BME280;68206;59.956;30.234;2023-04-01T08:12:13;100480.16;;;0.66;77.03
78855;BME280;68206;59.956;30.234;2023-04-01T08:15:07;100474.94;;;0.64;76.98
78855;BME280;68206;59.956;30.234;2023-04-01T08:18:11;100481.91;;;0.65;76.52
78855;BME280;68206;59.956;30.234;2023-04-01T08:20:47;100481.03;;;0.65;76.23
78855;BME280;68206;59.956;30.234;2023-04-01T08:23:18;100485.34;;;0.63;76.38
78855;BME280;68206;59.956;30.234;2023-04-01T08:25:54;100485.41;;;0.70;76.08
78855;BME280;68206;59.956;30.234;2023-04-01T08:28:30;100491.53;;;0.74;75.67
78855;BME280;68206;59.956;30.234;2023-04-01T08:31:06;100494.16;;;0.78;75.90
78855;BME280;68206;59.956;30.234;2023-04-01T08:33:44;100482.03;;;0.85;75.93
78855;BME280;68206;59.956;30.234;2023-04-01T08:36:23;100494.25;;;0.91;75.49
78855;BME280;68206;59.956;30.234;2023-04-01T08:39:13;100490.81;;;0.98;75.06
78855;BME280;68206;59.956;30.234;2023-04-01T08:45:21;100492.63;;;1.11;74.61
78855;BME280;68206;59.956;30.234;2023-04-01T08:48:36;100501.34;;;1.19;74.03
78855;BME280;68206;59.956;30.234;2023-04-01T08:51:42;100493.50;;;1.20;73.69
78855;BME280;68206;59.956;30.234;2023-04-01T08:54:34;100494.41;;;1.23;74.03
78855;BME280;68206;59.956;30.234;2023-04-01T08:57:18;100492.66;;;1.23;73.80
78855;BME280;68206;59.956;30.234;2023-04-01T09:00:25;100503.09;;;1.21;73.53
78855;BME280;68206;59.956;30.234;2023-04-01T09:03:36;100506.59;;;1.24;73.08
78855;BME280;68206;59.956;30.234;2023-04-01T09:06:38;100515.31;;;1.27;73.20
78855;BME280;68206;59.956;30.234;2023-04-01T09:09:35;100514.47;;;1.33;73.27
78855;BME280;68206;59.956;30.234;2023-04-01T09:12:29;100517.09;;;1.36;73.54
78855;BME280;68206;59.956;30.234;2023-04-01T09:15:27;100511.03;;;1.40;72.86
78855;BME280;68206;59.956;30.234;2023-04-01T09:27:28;100518.00;;;1.42;72.76
78855;BME280;68206;59.956;30.234;2023-04-01T09:33:46;100521.53;;;1.49;73.14
78855;BME280;68206;59.956;30.234;2023-04-01T09:36:41;100520.66;;;1.54;73.37
78855;BME280;68206;59.956;30.234;2023-04-01T09:45:37;100514.69;;;1.87;73.24
78855;BME280;68206;59.956;30.234;2023-04-01T09:48:31;100521.66;;;2.02;72.91
78855;BME280;68206;59.956;30.234;2023-04-01T09:51:13;100515.56;;;2.20;72.11
78855;BME280;68206;59.956;30.234;2023-04-01T09:54:04;100529.56;;;2.37;72.46
78855;BME280;68206;59.956;30.234;2023-04-01T10:13:55;100539.16;;;2.41;71.50
78855;BME280;68206;59.956;30.234;2023-04-01T10:26:13;100545.25;;;2.52;70.08
78855;BME280;68206;59.956;30.234;2023-04-01T10:32:57;100549.63;;;2.41;70.02
78855;BME280;68206;59.956;30.234;2023-04-01T10:36:08;100557.47;;;2.41;69.77
78855;BME280;68206;59.956;30.234;2023-04-01T10:45:59;100561.81;;;2.27;69.93
78855;BME280;68206;59.956;30.234;2023-04-01T10:48:55;100557.47;;;2.23;69.47
78855;BME280;68206;59.956;30.234;2023-04-01T10:52:22;100555.72;;;2.17;70.14
78855;BME280;68206;59.956;30.234;2023-04-01T10:55:36;100560.94;;;2.16;70.08
78855;BME280;68206;59.956;30.234;2023-04-01T11:05:38;100569.63;;;2.13;69.43
78855;BME280;68206;59.956;30.234;2023-04-01T11:15:07;100567.03;;;2.12;69.00
78855;BME280;68206;59.956;30.234;2023-04-01T11:18:13;100581.84;;;2.19;69.66
78855;BME280;68206;59.956;30.234;2023-04-01T11:21:22;100583.59;;;2.21;69.68
78855;BME280;68206;59.956;30.234;2023-04-01T11:27:59;100596.69;;;2.27;68.70
78855;BME280;68206;59.956;30.234;2023-04-01T11:30:58;100589.72;;;2.20;68.65
78855;BME280;68206;59.956;30.234;2023-04-01T11:33:36;100587.09;;;2.22;68.50
78855;BME280;68206;59.956;30.234;2023-04-01T11:36:21;100598.44;;;2.21;68.74
78855;BME280;68206;59.956;30.234;2023-04-01T11:39:11;100587.09;;;2.17;68.50
78855;BME280;68206;59.956;30.234;2023-04-01T11:42:13;100593.19;;;2.15;68.50
78855;BME280;68206;59.956;30.234;2023-04-01T11:45:32;100591.44;;;2.15;68.84
78855;BME280;68206;59.956;30.234;2023-04-01T11:48:24;100599.31;;;2.17;68.79
78855;BME280;68206;59.956;30.234;2023-04-01T11:51:10;100592.34;;;2.26;68.25
78855;BME280;68206;59.956;30.234;2023-04-01T11:53:52;100591.50;;;2.35;69.72
78855;BME280;68206;59.956;30.234;2023-04-01T11:56:49;100593.25;;;2.42;68.82
78855;BME280;68206;59.956;30.234;2023-04-01T12:02:26;100611.59;;;2.62;69.63
78855;BME280;68206;59.956;30.234;2023-04-01T12:05:28;100604.59;;;2.76;68.85
78855;BME280;68206;59.956;30.234;2023-04-01T12:08:28;100611.59;;;2.88;67.23
78855;BME280;68206;59.956;30.234;2023-04-01T12:11:09;100613.38;;;2.87;68.03
78855;BME280;68206;59.956;30.234;2023-04-01T12:13:50;100615.06;;;2.94;67.30
78855;BME280;68206;59.956;30.234;2023-04-01T12:16:43;100610.72;;;2.95;66.52
78855;BME280;68206;59.956;30.234;2023-04-01T12:19:23;100619.47;;;2.92;64.79
78855;BME280;68206;59.956;30.234;2023-04-01T12:22:08;100621.19;;;2.89;65.34
78855;BME280;68206;59.956;30.234;2023-04-01T12:24:46;100620.31;;;2.82;64.75
78855;BME280;68206;59.956;30.234;2023-04-01T12:35:56;100631.66;;;2.69;64.09
78855;BME280;68206;59.956;30.234;2023-04-01T12:38:32;100629.03;;;2.69;63.61
78855;BME280;68206;59.956;30.234;2023-04-01T12:41:22;100637.78;;;2.66;63.98
78855;BME280;68206;59.956;30.234;2023-04-01T12:47:29;100635.13;;;2.63;64.43
78855;BME280;68206;59.956;30.234;2023-04-01T12:50:27;100636.91;;;2.67;64.63
78855;BME280;68206;59.956;30.234;2023-04-01T12:53:18;100643.91;;;2.68;64.78
78855;BME280;68206;59.956;30.234;2023-04-01T12:55:48;100644.75;;;2.75;63.65
78855;BME280;68206;59.956;30.234;2023-04-01T12:58:59;100649.13;;;2.82;63.98
78855;BME280;68206;59.956;30.234;2023-04-01T13:01:55;100647.41;;;2.87;63.08
78855;BME280;68206;59.956;30.234;2023-04-01T13:07:55;100653.50;;;2.95;60.63
78855;BME280;68206;59.956;30.234;2023-04-01T13:10:36;100654.38;;;2.96;59.90
78855;BME280;68206;59.956;30.234;2023-04-01T13:13:23;100663.97;;;2.95;60.21
78855;BME280;68206;59.956;30.234;2023-04-01T13:16:03;100664.00;;;3.06;59.05
78855;BME280;68206;59.956;30.234;2023-04-01T13:18:43;100663.09;;;3.07;58.02
78855;BME280;68206;59.956;30.234;2023-04-01T13:21:23;100663.13;;;3.11;55.90
78855;BME280;68206;59.956;30.234;2023-04-01T13:23:59;100671.84;;;3.16;54.72
78855;BME280;68206;59.956;30.234;2023-04-01T13:26:36;100674.47;;;3.19;55.22
78855;BME280;68206;59.956;30.234;2023-04-01T13:29:12;100678.84;;;3.23;56.35
78855;BME280;68206;59.956;30.234;2023-04-01T13:31:55;100673.59;;;3.30;53.30
78855;BME280;68206;59.956;30.234;2023-04-01T13:34:39;100676.19;;;3.31;52.88
78855;BME280;68206;59.956;30.234;2023-04-01T13:37:24;100673.56;;;3.25;53.04
78855;BME280;68206;59.956;30.234;2023-04-01T13:40:30;100666.63;;;3.24;52.84
78855;BME280;68206;59.956;30.234;2023-04-01T13:43:04;100677.97;;;3.17;53.07
78855;BME280;68206;59.956;30.234;2023-04-01T13:45:46;100666.59;;;3.15;51.41
78855;BME280;68206;59.956;30.234;2023-04-01T13:48:32;100686.69;;;3.10;51.63
78855;BME280;68206;59.956;30.234;2023-04-01T13:54:28;100683.19;;;2.97;49.95
78855;BME280;68206;59.956;30.234;2023-04-01T13:57:13;100675.34;;;2.97;50.68
78855;BME280;68206;59.956;30.234;2023-04-01T14:00:03;100691.06;;;2.93;50.35
78855;BME280;68206;59.956;30.234;2023-04-01T14:02:56;100691.91;;;2.95;51.69
78855;BME280;68206;59.956;30.234;2023-04-01T14:05:44;100697.16;;;3.01;49.79
78855;BME280;68206;59.956;30.234;2023-04-01T14:08:25;100700.66;;;3.01;49.48
78855;BME280;68206;59.956;30.234;2023-04-01T14:11:06;100707.66;;;2.98;49.61
78855;BME280;68206;59.956;30.234;2023-04-01T14:13:43;100695.41;;;2.91;48.35
78855;BME280;68206;59.956;30.234;2023-04-01T14:16:44;100704.16;;;2.85;47.65
78855;BME280;68206;59.956;30.234;2023-04-01T14:19:26;100707.63;;;2.86;47.08
78855;BME280;68206;59.956;30.234;2023-04-01T14:22:05;100698.91;;;2.79;46.18
78855;BME280;68206;59.956;30.234;2023-04-01T14:24:50;100712.00;;;2.79;47.37
78855;BME280;68206;59.956;30.234;2023-04-01T14:27:41;100713.72;;;2.72;46.58
78855;BME280;68206;59.956;30.234;2023-04-01T14:30:32;100718.09;;;2.73;47.26
78855;BME280;68206;59.956;30.234;2023-04-01T14:33:15;100706.75;;;2.77;46.43
78855;BME280;68206;59.956;30.234;2023-04-01T14:35:55;100715.50;;;2.79;45.25
78855;BME280;68206;59.956;30.234;2023-04-01T14:38:46;100718.97;;;2.80;45.54
78855;BME280;68206;59.956;30.234;2023-04-01T14:41:20;100723.31;;;2.76;45.98
78855;BME280;68206;59.956;30.234;2023-04-01T14:44:14;100725.94;;;2.78;45.61
78855;BME280;68206;59.956;30.234;2023-04-01T14:49:41;100728.53;;;2.70;42.50
78855;BME280;68206;59.956;30.234;2023-04-01T14:52:14;100739.91;;;2.68;43.37
78855;BME280;68206;59.956;30.234;2023-04-01T14:54:46;100740.75;;;2.64;43.28
78855;BME280;68206;59.956;30.234;2023-04-01T14:57:23;100749.47;;;2.60;41.81
78855;BME280;68206;59.956;30.234;2023-04-01T14:59:54;100754.69;;;2.55;43.58
78855;BME280;68206;59.956;30.234;2023-04-01T15:02:50;100743.31;;;2.50;43.55
78855;BME280;68206;59.956;30.234;2023-04-01T15:05:31;100752.97;;;2.56;44.43
78855;BME280;68206;59.956;30.234;2023-04-01T15:08:20;100751.19;;;2.53;44.01
78855;BME280;68206;59.956;30.234;2023-04-01T15:14:05;100756.41;;;2.56;43.26
78855;BME280;68206;59.956;30.234;2023-04-01T15:16:41;100754.69;;;2.57;43.93
78855;BME280;68206;59.956;30.234;2023-04-01T15:19:21;100767.78;;;2.54;44.38
78855;BME280;68206;59.956;30.234;2023-04-01T15:22:19;100779.97;;;2.50;44.15
78855;BME280;68206;59.956;30.234;2023-04-01T15:25:04;100784.31;;;2.43;43.95
78855;BME280;68206;59.956;30.234;2023-04-01T15:27:42;100784.28;;;2.39;44.96
78855;BME280;68206;59.956;30.234;2023-04-01T15:30:23;100786.91;;;2.36;45.90
78855;BME280;68206;59.956;30.234;2023-04-01T15:33:07;100788.63;;;2.34;45.05
78855;BME280;68206;59.956;30.234;2023-04-01T15:35:45;100791.25;;;2.31;45.68
78855;BME280;68206;59.956;30.234;2023-04-01T15:38:24;100790.31;;;2.26;46.67
78855;BME280;68206;59.956;30.234;2023-04-01T15:40:58;100802.56;;;2.30;45.88
78855;BME280;68206;59.956;30.234;2023-04-01T15:43:40;100795.56;;;2.26;46.31
78855;BME280;68206;59.956;30.234;2023-04-01T15:46:20;100802.53;;;2.22;46.40
78855;BME280;68206;59.956;30.234;2023-04-01T15:49:00;100805.97;;;2.15;46.95